Terminal Aerodrome Forecast
Issued by NWS Chicago, IL

Home | Current Version | Previous Version | Text Only | Print | Product List | Glossary On
Versions: 1 2 3 4 5 6 7 8 9 10 11 12 13 14 15 16 17 18 19 20 21 22 23 24 25 26 27 28 29 30 31 32 33 34 35
000
FTUS43 KLOT 230600 AAA
TAFRFD
TAF AMD
KRFD 230620Z 2306/2406 18011KT 6SM BR SCT009 OVC015
     FM230800 18013KT P6SM SCT007 OVC015
     FM231500 18014KT 2SM -SHRA BR SCT007 BKN015 OVC020
     FM231900 14012G20KT 2SM RA BR OVC005
     FM240300 15008KT 1 1/2SM -RA BR OVC003=

USA.gov is the U.S. government's official web portal to all federal, state and local government web resources and services.